Time;durP1;ratioP1;P1;durP2;ratioP2;P2;SDS_P1;SDS_P2;PMS_P1;PMS_P2;Temp;Humidity;BMP_temperature;BMP_pressure;BME280_temperature;BME280_humidity;BME280_pressure;Samples;Min_cycle;Max_cycle;Signal;HPM_P1;HPM_P2
2023/12/01 00:01:13;;;;;;;;;;;;;;;16.24;47.99;100505.41;4994860;28;1151;-48
2023/12/01 00:03:38;;;;;;;;;;;;;;;15.89;48.87;100503.53;4990253;28;1109;-49
2023/12/01 00:06:04;;;;;;;;;;;;;;;15.66;49.40;100499.41;4998914;28;1107;-49
2023/12/01 00:08:29;;;;;;;;;;;;;;;15.87;49.37;100489.28;4988699;28;1040;-48
2023/12/01 00:10:55;;;;;;;;;;;;;;;17.22;45.84;100490.44;4988789;28;1143;-50
2023/12/01 00:13:20;;;;;;;;;;;;;;;16.79;46.76;100487.38;4988708;28;1903;-48
2023/12/01 00:15:46;;;;;;;;;;;;;;;16.21;48.02;100488.66;4982356;28;1064;-48
2023/12/01 00:18:11;;;;;;;;;;;;;;;15.83;49.10;100486.25;4999224;28;1064;-49
2023/12/01 00:20:37;;;;;;;;;;;;;;;15.64;49.56;100490.63;4995683;28;1025;-51
2023/12/01 00:23:02;;;;;;;;;;;;;;;15.47;49.89;100483.47;4981574;28;913;-50
2023/12/01 00:25:28;;;;;;;;;;;;;;;16.89;46.50;100482.69;4995104;28;1160;-46
2023/12/01 00:27:53;;;;;;;;;;;;;;;17.01;46.36;100489.75;4999117;28;1051;-49
2023/12/01 00:30:19;;;;;;;;;;;;;;;16.20;48.37;100500.75;4981690;28;1211;-49
2023/12/01 00:32:45;;;;;;;;;;;;;;;15.89;48.85;100495.31;4979157;28;1204;-48
2023/12/01 00:35:10;;;;;;;;;;;;;;;16.02;48.68;100496.66;4997244;28;1906;-49
2023/12/01 00:37:36;;;;;;;;;;;;;;;17.39;45.49;100495.56;5004376;28;1565;-49
2023/12/01 00:40:03;;;;;;;;;;;;;;;16.62;47.24;100484.97;4992175;28;1226;-46
2023/12/01 00:42:28;;;;;;;;;;;;;;;16.14;48.27;100482.66;4989045;28;1089;-49
2023/12/01 00:44:54;;;;;;;;;;;;;;;15.88;49.20;100479.97;4995850;28;1184;-51
2023/12/01 00:47:19;;;;;;;;;;;;;;;15.86;49.10;100482.97;4991419;28;890;-48
2023/12/01 00:49:46;;;;;;;;;;;;;;;17.30;45.57;100476.09;4989526;28;1296;-51
2023/12/01 00:52:11;;;;;;;;;;;;;;;16.56;47.49;100475.94;4977831;28;1073;-49
2023/12/01 00:54:37;;;;;;;;;;;;;;;16.06;48.71;100468.41;4994114;28;1902;-49
2023/12/01 00:57:02;;;;;;;;;;;;;;;15.79;49.22;100471.47;4997488;28;1063;-47
2023/12/01 00:59:28;;;;;;;;;;;;;;;15.95;48.95;100472.28;4993147;28;1267;-48
2023/12/01 01:01:53;;;;;;;;;;;;;;;17.35;45.47;100467.84;4989291;28;1148;-50
2023/12/01 01:04:19;;;;;;;;;;;;;;;16.64;47.08;100474.53;4977509;28;1082;-49
2023/12/01 01:06:44;;;;;;;;;;;;;;;16.12;48.35;100463.72;5002999;28;1068;-47
2023/12/01 01:09:10;;;;;;;;;;;;;;;15.83;49.04;100466.25;4978761;28;1192;-48
2023/12/01 01:11:36;;;;;;;;;;;;;;;15.62;49.78;100455.28;5006544;28;1444;-47
2023/12/01 01:14:01;;;;;;;;;;;;;;;16.32;48.32;100449.13;4995488;28;1910;-50
2023/12/01 01:16:27;;;;;;;;;;;;;;;17.51;45.36;100445.72;4987415;28;1044;-52
2023/12/01 01:18:52;;;;;;;;;;;;;;;16.62;47.02;100447.38;4982094;28;1167;-50
2023/12/01 01:21:18;;;;;;;;;;;;;;;16.16;48.18;100447.53;4978747;28;1127;-47
2023/12/01 01:23:43;;;;;;;;;;;;;;;15.82;48.98;100454.47;4990867;28;1120;-48
2023/12/01 01:26:09;;;;;;;;;;;;;;;15.70;49.39;100446.50;4997929;28;1087;-48
2023/12/01 01:28:34;;;;;;;;;;;;;;;17.03;46.33;100441.69;4984618;28;1184;-50
2023/12/01 01:31:00;;;;;;;;;;;;;;;16.60;47.17;100441.34;4998099;28;1103;-46
2023/12/01 01:33:25;;;;;;;;;;;;;;;16.06;48.74;100434.66;4984251;28;1975;-52
2023/12/01 01:35:51;;;;;;;;;;;;;;;15.78;49.11;100436.91;4983989;28;918;-46
2023/12/01 01:38:16;;;;;;;;;;;;;;;17.00;46.39;100442.25;4991316;28;1103;-47
2023/12/01 01:40:42;;;;;;;;;;;;;;;17.08;45.98;100447.16;4977981;28;1064;-48
2023/12/01 01:43:07;;;;;;;;;;;;;;;16.33;47.79;100448.03;4977835;28;1091;-50
2023/12/01 01:45:33;;;;;;;;;;;;;;;15.98;48.66;100438.81;4986819;28;1157;-47
2023/12/01 01:47:59;;;;;;;;;;;;;;;15.78;49.43;100438.81;4993631;28;1056;-46
2023/12/01 01:50:25;;;;;;;;;;;;;;;15.62;49.82;100436.09;4994499;28;965;-46
2023/12/01 01:52:51;;;;;;;;;;;;;;;16.92;46.96;100442.84;4993191;28;1064;-46
2023/12/01 01:55:17;;;;;;;;;;;;;;;16.91;46.42;100430.22;4986156;28;1963;-50
2023/12/01 01:57:45;;;;;;;;;;;;;;;16.21;48.23;100433.81;4995296;28;1055;-51
2023/12/01 02:00:16;;;;;;;;;;;;;;;15.89;49.26;100443.19;4985300;28;1083;-50
2023/12/01 02:02:41;;;;;;;;;;;;;;;15.69;49.70;100438.56;4996293;28;1012;-47
2023/12/01 02:05:13;;;;;;;;;;;;;;;16.99;46.57;100437.03;4970337;28;1187;-49
2023/12/01 02:07:38;;;;;;;;;;;;;;;16.76;46.89;100434.66;4993373;28;1144;-49
2023/12/01 02:10:04;;;;;;;;;;;;;;;16.13;48.61;100432.47;4993722;28;1137;-50
2023/12/01 02:12:30;;;;;;;;;;;;;;;15.84;49.17;100418.56;4992172;28;1148;-47
2023/12/01 02:14:55;;;;;;;;;;;;;;;15.64;49.66;100414.72;4996664;28;1902;-50
2023/12/01 02:17:21;;;;;;;;;;;;;;;16.80;47.16;100425.84;4993294;28;1083;-52
2023/12/01 02:19:46;;;;;;;;;;;;;;;16.91;46.44;100416.47;4977626;28;1124;-49
2023/12/01 02:22:12;;;;;;;;;;;;;;;16.19;48.23;100416.81;5001694;28;1221;-48
2023/12/01 02:24:37;;;;;;;;;;;;;;;15.89;49.00;100411.13;4984636;28;1049;-50
2023/12/01 02:27:03;;;;;;;;;;;;;;;15.71;49.40;100415.25;4980827;28;1152;-50
2023/12/01 02:29:28;;;;;;;;;;;;;;;17.14;46.21;100412.22;4987325;28;1052;-48
2023/12/01 02:31:54;;;;;;;;;;;;;;;16.76;46.94;100417.38;4977575;28;1100;-49
2023/12/01 02:34:21;;;;;;;;;;;;;;;16.13;48.40;100410.53;4987268;28;1887;-51
2023/12/01 02:36:46;;;;;;;;;;;;;;;15.86;49.01;100402.63;4992414;28;892;-47
2023/12/01 02:39:13;;;;;;;;;;;;;;;15.71;49.60;100403.44;4986048;28;1251;-52
2023/12/01 02:41:39;;;;;;;;;;;;;;;16.34;48.23;100397.56;4996151;28;1051;-49
2023/12/01 02:44:04;;;;;;;;;;;;;;;17.37;45.64;100399.66;5002129;28;1278;-48
2023/12/01 02:46:30;;;;;;;;;;;;;;;16.38;48.01;100395.88;4993546;28;1112;-50
2023/12/01 02:48:55;;;;;;;;;;;;;;;16.03;48.72;100400.41;4988542;28;856;-48
2023/12/01 02:51:22;;;;;;;;;;;;;;;15.77;49.33;100396.88;4996619;28;1053;-51
2023/12/01 02:53:48;;;;;;;;;;;;;;;15.57;49.96;100403.19;4985335;28;1914;-47
2023/12/01 02:56:13;;;;;;;;;;;;;;;16.19;48.51;100401.16;5004676;28;1384;-48
2023/12/01 02:58:39;;;;;;;;;;;;;;;17.40;45.74;100398.25;4987130;28;1420;-48
2023/12/01 03:01:05;;;;;;;;;;;;;;;16.51;47.61;100394.44;4994159;28;831;-50
2023/12/01 03:03:30;;;;;;;;;;;;;;;16.07;48.63;100392.44;4983319;28;1215;-51
2023/12/01 03:05:56;;;;;;;;;;;;;;;15.80;49.35;100385.38;5007880;28;1223;-49
2023/12/01 03:08:21;;;;;;;;;;;;;;;15.72;49.51;100383.16;4986944;28;1243;-50
2023/12/01 03:10:48;;;;;;;;;;;;;;;17.15;46.32;100385.53;4992945;28;1101;-50
2023/12/01 03:13:13;;;;;;;;;;;;;;;17.00;46.52;100379.06;4996006;28;1429;-48
2023/12/01 03:15:41;;;;;;;;;;;;;;;16.27;48.05;100371.50;4996049;28;1906;-51
2023/12/01 03:18:06;;;;;;;;;;;;;;;16.02;48.84;100376.81;4996115;28;1023;-46
2023/12/01 03:20:32;;;;;;;;;;;;;;;15.76;49.63;100367.00;4996501;28;1122;-49
2023/12/01 03:22:57;;;;;;;;;;;;;;;15.69;49.77;100370.84;4995485;28;1514;-47
2023/12/01 03:25:23;;;;;;;;;;;;;;;17.09;46.35;100366.34;4989875;28;931;-48
2023/12/01 03:27:48;;;;;;;;;;;;;;;16.87;46.50;100371.44;4976815;28;1215;-47
2023/12/01 03:30:15;;;;;;;;;;;;;;;16.17;48.56;100366.88;4988649;28;1021;-47
2023/12/01 03:32:50;;;;;;;;;;;;;;;15.87;49.23;100363.16;4996242;28;1039;-50
2023/12/01 03:35:16;;;;;;;;;;;;;;;15.69;49.75;100362.59;4980097;28;1972;-49
2023/12/01 03:37:42;;;;;;;;;;;;;;;16.63;47.49;100369.38;4985914;28;1128;-46
2023/12/01 03:40:08;;;;;;;;;;;;;;;17.21;46.01;100373.44;4976820;28;1121;-49
2023/12/01 03:42:36;;;;;;;;;;;;;;;16.32;48.07;100372.31;4983898;28;1244;-46
2023/12/01 03:45:02;;;;;;;;;;;;;;;15.88;49.29;100362.06;4982195;28;2821;-46
2023/12/01 03:47:28;;;;;;;;;;;;;;;15.71;49.72;100354.94;4975173;28;1790;-49
2023/12/01 03:49:53;;;;;;;;;;;;;;;16.95;46.69;100359.88;4986612;28;2193;-54
2023/12/01 03:52:19;;;;;;;;;;;;;;;16.85;47.02;100348.94;4982744;28;2120;-57
2023/12/01 03:54:44;;;;;;;;;;;;;;;16.14;48.50;100338.09;4987213;28;2136;-56
2023/12/01 03:57:10;;;;;;;;;;;;;;;15.83;49.55;100345.63;4987584;28;2156;-58
2023/12/01 03:59:35;;;;;;;;;;;;;;;15.64;49.97;100337.97;4996193;28;1064;-56
2023/12/01 04:02:01;;;;;;;;;;;;;;;15.46;50.30;100335.81;4993489;28;1061;-55
2023/12/01 04:04:26;;;;;;;;;;;;;;;15.92;49.48;100338.44;4994458;28;1421;-57
2023/12/01 04:06:52;;;;;;;;;;;;;;;17.23;45.99;100338.22;4994415;28;1159;-56
2023/12/01 04:09:18;;;;;;;;;;;;;;;16.54;47.44;100343.66;4988011;28;1033;-58
2023/12/01 04:11:44;;;;;;;;;;;;;;;15.97;48.92;100335.69;4993511;28;1360;-56
2023/12/01 04:14:10;;;;;;;;;;;;;;;15.72;49.69;100334.66;4987540;28;1964;-56
2023/12/01 04:16:35;;;;;;;;;;;;;;;16.42;48.07;100339.34;4995280;28;1361;-56
2023/12/01 04:19:01;;;;;;;;;;;;;;;16.95;46.69;100339.84;4997458;28;1164;-55
2023/12/01 04:21:26;;;;;;;;;;;;;;;16.14;48.61;100326.31;4998500;28;1440;-57
2023/12/01 04:23:52;;;;;;;;;;;;;;;15.84;49.58;100326.16;4997080;28;1306;-57
2023/12/01 04:26:18;;;;;;;;;;;;;;;15.60;50.19;100323.19;4996647;28;2395;-55
2023/12/01 04:28:43;;;;;;;;;;;;;;;16.70;47.46;100331.44;4997074;28;1256;-56
2023/12/01 04:31:09;;;;;;;;;;;;;;;16.76;47.00;100327.59;4979240;28;1121;-57
2023/12/01 04:33:34;;;;;;;;;;;;;;;16.05;49.00;100320.59;4992152;28;1906;-58
2023/12/01 04:36:06;;;;;;;;;;;;;;;15.80;49.71;100318.78;4994815;28;1104;-59
2023/12/01 04:38:35;;;;;;;;;;;;;;;15.63;50.05;100316.34;4982853;28;1244;-57
2023/12/01 04:41:03;;;;;;;;;;;;;;;16.53;47.87;100309.06;4998248;28;1099;-57
2023/12/01 04:43:30;;;;;;;;;;;;;;;16.55;47.72;100321.41;4979935;28;1083;-57
2023/12/01 04:45:56;;;;;;;;;;;;;;;15.93;49.46;100322.84;4989866;28;1092;-56
2023/12/01 04:48:21;;;;;;;;;;;;;;;15.71;49.75;100322.06;4997194;28;1120;-56
2023/12/01 04:50:47;;;;;;;;;;;;;;;15.48;50.36;100331.69;4998320;28;1099;-57
2023/12/01 04:53:12;;;;;;;;;;;;;;;16.81;47.16;100331.41;4991377;28;1221;-52
2023/12/01 04:55:38;;;;;;;;;;;;;;;16.93;46.71;100318.97;4966865;28;1911;-54
2023/12/01 04:58:03;;;;;;;;;;;;;;;16.04;48.95;100325.25;4981432;28;1862;-56
2023/12/01 05:00:29;;;;;;;;;;;;;;;15.78;49.79;100326.41;4992698;28;1091;-56
2023/12/01 05:02:55;;;;;;;;;;;;;;;15.53;50.53;100331.69;4996192;28;1169;-53
2023/12/01 05:05:30;;;;;;;;;;;;;;;16.70;47.86;100328.72;4971878;28;1573;-53
2023/12/01 05:07:59;;;;;;;;;;;;;;;16.55;47.71;100329.66;4978925;28;1302;-50
2023/12/01 05:10:25;;;;;;;;;;;;;;;15.96;49.38;100330.50;4977589;28;1134;-58
2023/12/01 05:12:52;;;;;;;;;;;;;;;15.67;50.31;100336.56;4983715;28;1064;-56
2023/12/01 05:15:18;;;;;;;;;;;;;;;17.04;46.69;100329.84;4996666;28;1911;-54
2023/12/01 05:17:45;;;;;;;;;;;;;;;16.23;48.62;100339.16;4997455;28;1344;-52
2023/12/01 05:20:15;;;;;;;;;;;;;;;15.81;49.63;100336.84;4997428;28;984;-52
2023/12/01 05:22:44;;;;;;;;;;;;;;;15.59;50.28;100332.50;4993493;28;1221;-52
2023/12/01 05:25:15;;;;;;;;;;;;;;;15.46;50.83;100327.56;4992379;28;901;-52
2023/12/01 05:27:51;;;;;;;;;;;;;;;15.26;50.93;100331.19;4983866;28;1871;-52
2023/12/01 05:30:17;;;;;;;;;;;;;;;16.80;47.16;100343.47;4992578;28;951;-55
2023/12/01 05:32:44;;;;;;;;;;;;;;;15.87;48.84;100343.97;4984751;28;1073;-57
2023/12/01 05:35:12;;;;;;;;;;;;;;;15.50;49.00;100343.22;4984263;28;1979;-55
2023/12/01 05:37:39;;;;;;;;;;;;;;;15.40;48.54;100345.94;4986779;28;904;-52
2023/12/01 05:40:09;;;;;;;;;;;;;;;15.27;48.15;100343.78;4990742;28;1021;-56
2023/12/01 05:42:34;;;;;;;;;;;;;;;15.26;48.21;100340.22;4987275;28;1147;-52
2023/12/01 05:45:00;;;;;;;;;;;;;;;16.08;48.71;100329.06;4984022;28;1021;-49
2023/12/01 05:47:25;;;;;;;;;;;;;;;15.52;48.93;100334.72;4997186;28;1095;-58
2023/12/01 05:49:51;;;;;;;;;;;;;;;15.34;48.37;100338.84;4980090;28;1140;-57
2023/12/01 05:52:16;;;;;;;;;;;;;;;15.20;47.71;100338.59;4987390;28;1012;-56
2023/12/01 05:54:42;;;;;;;;;;;;;;;15.45;47.99;100345.13;4982114;28;1906;-56
2023/12/01 05:57:07;;;;;;;;;;;;;;;15.72;49.13;100345.63;4986364;28;1911;-56
2023/12/01 05:59:34;;;;;;;;;;;;;;;15.28;48.89;100340.78;4980622;28;1435;-54
2023/12/01 06:01:59;;;;;;;;;;;;;;;15.18;48.26;100344.34;4982569;28;1114;-54
2023/12/01 06:04:25;;;;;;;;;;;;;;;15.09;47.52;100343.22;4977308;28;1231;-54
2023/12/01 06:06:51;;;;;;;;;;;;;;;16.11;48.21;100340.59;4987404;28;1083;-55
2023/12/01 06:09:17;;;;;;;;;;;;;;;15.48;49.06;100344.56;4982890;28;1112;-55
2023/12/01 06:11:45;;;;;;;;;;;;;;;15.30;48.08;100349.53;4972847;28;1341;-54
2023/12/01 06:14:11;;;;;;;;;;;;;;;15.59;48.47;100337.16;4974937;28;1910;-55
2023/12/01 06:16:37;;;;;;;;;;;;;;;15.81;48.98;100342.31;4977390;28;1100;-55
2023/12/01 06:19:02;;;;;;;;;;;;;;;15.37;48.74;100341.84;4976780;28;951;-53
2023/12/01 06:21:28;;;;;;;;;;;;;;;15.48;48.84;100334.44;4976818;28;1117;-55
2023/12/01 06:23:53;;;;;;;;;;;;;;;15.80;49.05;100333.28;4988146;28;1107;-53
2023/12/01 06:26:19;;;;;;;;;;;;;;;15.71;49.30;100330.28;4984222;28;1973;-57
2023/12/01 06:28:44;;;;;;;;;;;;;;;17.11;47.14;100330.38;4988724;28;1077;-55
2023/12/01 06:31:10;;;;;;;;;;;;;;;15.99;49.19;100328.03;4977486;28;1279;-57
2023/12/01 06:33:35;;;;;;;;;;;;;;;15.64;48.37;100331.66;4976950;28;1910;-53
2023/12/01 06:36:01;;;;;;;;;;;;;;;15.45;48.16;100325.97;4983034;28;1152;-55
2023/12/01 06:38:26;;;;;;;;;;;;;;;15.39;47.51;100334.19;4983031;28;1230;-59
2023/12/01 06:40:52;;;;;;;;;;;;;;;15.24;47.12;100334.19;4989603;28;1093;-57
2023/12/01 06:43:18;;;;;;;;;;;;;;;15.13;46.79;100327.09;4979667;28;1189;-57
2023/12/01 06:45:44;;;;;;;;;;;;;;;16.07;48.29;100335.69;4985952;28;1169;-58
2023/12/01 06:48:10;;;;;;;;;;;;;;;15.45;48.55;100329.50;4995740;28;1098;-56
2023/12/01 06:50:36;;;;;;;;;;;;;;;15.19;47.91;100332.28;4970181;28;1546;-58
2023/12/01 06:53:01;;;;;;;;;;;;;;;16.03;48.86;100331.84;4973752;28;1057;-58
2023/12/01 06:55:27;;;;;;;;;;;;;;;15.44;48.92;100327.84;4985213;28;1981;-53
2023/12/01 06:57:53;;;;;;;;;;;;;;;16.57;48.52;100337.59;4985760;28;1885;-58
2023/12/01 07:02:56;;;;;;;;;;;;;;;15.60;49.09;100328.66;4983099;28;849;-50
2023/12/01 07:05:25;;;;;;;;;;;;;;;15.46;48.20;100314.72;4984344;28;1083;-51
2023/12/01 07:07:54;;;;;;;;;;;;;;;15.37;47.42;100314.44;4994941;28;1121;-55
2023/12/01 07:10:21;;;;;;;;;;;;;;;16.23;48.39;100316.41;4983960;28;1110;-56
2023/12/01 07:12:47;;;;;;;;;;;;;;;15.52;49.25;100318.25;4989370;28;1185;-51
2023/12/01 07:15:12;;;;;;;;;;;;;;;15.33;48.20;100320.75;4979288;28;1977;-53
2023/12/01 07:17:38;;;;;;;;;;;;;;;16.02;48.68;100321.97;4971862;28;876;-54
2023/12/01 07:20:13;;;;;;;;;;;;;;;15.49;49.16;100318.81;4976403;28;1104;-53
2023/12/01 07:22:38;;;;;;;;;;;;;;;15.35;48.11;100313.91;4967949;28;1367;-51
2023/12/01 07:25:10;;;;;;;;;;;;;;;16.43;48.06;100308.03;4985454;28;1085;-53
2023/12/01 07:27:36;;;;;;;;;;;;;;;15.64;48.94;100310.56;4987020;28;1959;-52
2023/12/01 07:30:01;;;;;;;;;;;;;;;15.39;48.48;100322.41;4992759;28;1422;-52
2023/12/01 07:32:27;;;;;;;;;;;;;;;15.31;47.43;100320.22;4977843;28;1178;-54
2023/12/01 07:34:52;;;;;;;;;;;;;;;15.95;48.74;100326.94;4980914;28;1971;-58
2023/12/01 07:37:19;;;;;;;;;;;;;;;15.73;48.82;100322.59;4991163;28;1065;-58
2023/12/01 07:39:44;;;;;;;;;;;;;;;15.42;48.66;100326.50;4981347;28;1404;-58
2023/12/01 07:42:10;;;;;;;;;;;;;;;16.21;48.65;100329.56;4977373;28;1458;-59
2023/12/01 07:44:35;;;;;;;;;;;;;;;15.54;48.85;100325.13;4989886;28;1102;-58
2023/12/01 07:47:04;;;;;;;;;;;;;;;15.47;48.17;100321.81;4992027;28;1025;-59
2023/12/01 07:49:30;;;;;;;;;;;;;;;15.32;47.36;100322.69;4988174;28;1195;-52
2023/12/01 07:51:56;;;;;;;;;;;;;;;15.17;46.62;100319.97;4982541;28;1071;-57
2023/12/01 07:54:22;;;;;;;;;;;;;;;15.81;48.00;100320.38;4983804;28;1927;-53
2023/12/01 07:56:47;;;;;;;;;;;;;;;15.67;48.91;100318.22;4994292;28;2044;-52
2023/12/01 07:59:13;;;;;;;;;;;;;;;15.38;48.77;100316.09;4987176;28;1131;-53
2023/12/01 08:01:38;;;;;;;;;;;;;;;16.55;48.03;100315.09;4982019;28;1081;-56
2023/12/01 08:04:04;;;;;;;;;;;;;;;15.72;49.06;100312.75;4986905;28;1018;-56
2023/12/01 08:06:29;;;;;;;;;;;;;;;15.49;48.33;100302.38;4994643;28;1120;-53
2023/12/01 08:08:55;;;;;;;;;;;;;;;15.84;48.57;100314.38;4978770;28;1152;-52
2023/12/01 08:11:20;;;;;;;;;;;;;;;15.87;48.98;100316.53;4993003;28;1086;-59
2023/12/01 08:13:47;;;;;;;;;;;;;;;15.48;48.47;100312.50;4998360;28;1903;-57
2023/12/01 08:16:12;;;;;;;;;;;;;;;15.43;47.21;100303.47;4984215;28;1053;-57
2023/12/01 08:18:38;;;;;;;;;;;;;;;15.83;48.45;100307.25;4981413;28;1311;-56
2023/12/01 08:21:04;;;;;;;;;;;;;;;15.89;48.75;100300.63;4975269;28;961;-55
2023/12/01 08:23:31;;;;;;;;;;;;;;;15.49;48.29;100299.66;4997066;28;1176;-56
2023/12/01 08:25:56;;;;;;;;;;;;;;;15.29;47.94;100304.06;4985247;28;1156;-58
2023/12/01 08:28:22;;;;;;;;;;;;;;;15.34;47.27;100301.31;4985699;28;2145;-57
2023/12/01 08:30:47;;;;;;;;;;;;;;;15.98;48.49;100298.16;4983234;28;1057;-58
2023/12/01 08:33:13;;;;;;;;;;;;;;;15.52;48.24;100285.38;4998661;28;1016;-58
2023/12/01 08:35:38;;;;;;;;;;;;;;;15.37;47.71;100292.53;4985011;28;1987;-57
2023/12/01 08:38:04;;;;;;;;;;;;;;;15.30;47.52;100294.72;4983131;28;1128;-57
2023/12/01 08:40:30;;;;;;;;;;;;;;;15.90;48.53;100283.06;4989174;28;1280;-57
2023/12/01 08:42:55;;;;;;;;;;;;;;;15.43;48.59;100287.03;4997099;28;1090;-56
2023/12/01 08:45:21;;;;;;;;;;;;;;;15.29;47.87;100276.69;4978375;28;1121;-55
2023/12/01 08:47:47;;;;;;;;;;;;;;;15.86;48.13;100282.00;4991429;28;1128;-56
2023/12/01 08:50:12;;;;;;;;;;;;;;;15.79;48.42;100287.78;4991120;28;1069;-55
2023/12/01 08:52:38;;;;;;;;;;;;;;;15.66;48.90;100283.69;4978523;28;1056;-58
2023/12/01 08:55:05;;;;;;;;;;;;;;;16.86;47.42;100292.94;4994999;28;1918;-58
2023/12/01 08:57:30;;;;;;;;;;;;;;;15.98;48.52;100292.66;4981219;28;1930;-58
2023/12/01 08:59:56;;;;;;;;;;;;;;;15.63;48.29;100287.00;4965823;28;1141;-55
2023/12/01 09:02:21;;;;;;;;;;;;;;;15.53;47.54;100282.34;4984866;28;1000;-54
2023/12/01 09:04:47;;;;;;;;;;;;;;;16.52;48.22;100290.97;4984966;28;1247;-55
2023/12/01 09:07:12;;;;;;;;;;;;;;;15.86;48.91;100273.78;4991987;28;1211;-58
2023/12/01 09:09:38;;;;;;;;;;;;;;;15.64;48.18;100283.16;4997068;28;1072;-58
2023/12/01 09:12:04;;;;;;;;;;;;;;;15.47;47.52;100274.44;4993071;28;1092;-58
2023/12/01 09:14:30;;;;;;;;;;;;;;;15.35;47.35;100272.81;4991098;28;1918;-55
2023/12/01 09:16:56;;;;;;;;;;;;;;;15.99;48.53;100267.69;4977891;28;1070;-57
2023/12/01 09:19:21;;;;;;;;;;;;;;;15.57;48.23;100274.38;4977467;28;1010;-58
2023/12/01 09:21:48;;;;;;;;;;;;;;;15.42;47.64;100268.94;4977367;28;1172;-57
2023/12/01 09:24:13;;;;;;;;;;;;;;;15.22;47.07;100260.53;4992397;28;1190;-58
2023/12/01 09:26:39;;;;;;;;;;;;;;;16.10;48.21;100262.16;4982262;28;1941;-57
2023/12/01 09:29:04;;;;;;;;;;;;;;;15.61;48.46;100278.22;4977553;28;1021;-57
2023/12/01 09:31:30;;;;;;;;;;;;;;;15.65;48.57;100268.34;4991100;28;1061;-57
2023/12/01 09:33:55;;;;;;;;;;;;;;;15.89;48.57;100264.97;4984242;28;1962;-57
2023/12/01 09:36:21;;;;;;;;;;;;;;;15.55;48.12;100246.47;4983960;28;1011;-57
2023/12/01 09:38:49;;;;;;;;;;;;;;;15.42;47.42;100252.50;4983821;28;1124;-56
2023/12/01 09:41:16;;;;;;;;;;;;;;;15.25;47.27;100259.16;4983636;28;1113;-58
2023/12/01 09:43:43;;;;;;;;;;;;;;;16.11;48.05;100252.81;4983243;28;1006;-56
2023/12/01 09:46:09;;;;;;;;;;;;;;;15.53;48.49;100256.88;4982923;28;1136;-56
2023/12/01 09:48:35;;;;;;;;;;;;;;;16.00;48.56;100263.81;4996378;28;1059;-58
2023/12/01 09:51:00;;;;;;;;;;;;;;;15.91;48.66;100244.41;4988530;28;1035;-55
2023/12/01 09:53:26;;;;;;;;;;;;;;;15.51;48.54;100245.38;4983890;28;1069;-58
2023/12/01 09:55:51;;;;;;;;;;;;;;;15.39;47.73;100249.25;4983569;28;1906;-56
2023/12/01 09:58:17;;;;;;;;;;;;;;;15.82;48.13;100253.50;4986140;28;1902;-55
2023/12/01 10:00:46;;;;;;;;;;;;;;;15.62;48.69;100252.47;4991725;28;1049;-57
2023/12/01 10:03:11;;;;;;;;;;;;;;;15.39;47.90;100242.97;4973351;28;855;-55
2023/12/01 10:05:37;;;;;;;;;;;;;;;15.37;47.57;100247.88;4983959;28;1024;-57
2023/12/01 10:08:04;;;;;;;;;;;;;;;15.90;48.43;100239.22;4989653;28;1023;-57
2023/12/01 10:10:30;;;;;;;;;;;;;;;15.48;48.19;100232.25;4970010;28;1519;-59
2023/12/01 10:12:56;;;;;;;;;;;;;;;15.31;47.73;100219.69;4970788;28;1192;-56
2023/12/01 10:15:22;;;;;;;;;;;;;;;15.16;47.36;100222.47;4973811;28;1902;-55
2023/12/01 10:17:49;;;;;;;;;;;;;;;15.33;47.38;100227.63;4982375;28;1141;-58
2023/12/01 10:20:18;;;;;;;;;;;;;;;16.07;47.99;100225.13;4993421;28;1140;-56
2023/12/01 10:22:44;;;;;;;;;;;;;;;15.50;48.49;100216.31;4974971;28;1164;-57
2023/12/01 10:25:11;;;;;;;;;;;;;;;15.28;48.07;100222.13;4989355;28;1113;-57
2023/12/01 10:27:36;;;;;;;;;;;;;;;15.23;47.22;100207.38;4983870;28;2444;-57
2023/12/01 10:30:14;;;;;;;;;;;;;;;16.19;47.91;100203.66;4972244;28;1070;-55
2023/12/01 10:32:43;;;;;;;;;;;;;;;15.64;48.53;100200.94;4976032;28;1144;-53
2023/12/01 10:35:08;;;;;;;;;;;;;;;15.37;47.88;100204.84;4978006;28;1902;-57
2023/12/01 10:37:36;;;;;;;;;;;;;;;15.85;48.36;100206.31;4983556;28;1156;-58
2023/12/01 10:40:05;;;;;;;;;;;;;;;15.76;48.56;100195.09;4979813;28;1199;-51
2023/12/01 10:42:34;;;;;;;;;;;;;;;15.48;48.49;100196.63;4990680;28;1078;-56
2023/12/01 10:45:00;;;;;;;;;;;;;;;15.35;47.59;100201.59;4967949;28;1022;-56
2023/12/01 10:47:25;;;;;;;;;;;;;;;15.21;46.93;100192.34;4995920;28;1041;-56
2023/12/01 10:49:51;;;;;;;;;;;;;;;16.05;47.87;100210.91;4990462;28;1063;-58
2023/12/01 10:52:17;;;;;;;;;;;;;;;15.76;48.58;100205.25;4986751;28;871;-58
2023/12/01 10:54:43;;;;;;;;;;;;;;;15.46;48.15;100207.03;4989816;28;1979;-57
2023/12/01 10:57:09;;;;;;;;;;;;;;;15.41;48.10;100202.38;4994813;28;1957;-47
2023/12/01 10:59:34;;;;;;;;;;;;;;;15.84;48.47;100204.72;4977029;28;1050;-52
2023/12/01 11:02:00;;;;;;;;;;;;;;;15.42;48.61;100208.69;4995054;28;897;-48
2023/12/01 11:04:26;;;;;;;;;;;;;;;15.37;47.72;100207.59;4980776;28;1176;-58
2023/12/01 11:07:10;;;;;;;;;;;;;;;15.21;47.00;100215.06;4990371;28;1097;-58
2023/12/01 11:09:55;;;;;;;;;;;;;;;16.14;48.03;100200.13;4985960;28;1025;-56
2023/12/01 11:12:27;;;;;;;;;;;;;;;15.49;48.38;100198.25;4996663;28;1453;-58
2023/12/01 11:14:53;;;;;;;;;;;;;;;15.78;48.54;100189.34;4987220;28;1910;-58
2023/12/01 11:17:18;;;;;;;;;;;;;;;15.85;48.86;100179.75;4981479;28;1064;-56
2023/12/01 11:19:44;;;;;;;;;;;;;;;15.54;48.36;100173.56;4999679;28;1004;-57
2023/12/01 11:22:30;;;;;;;;;;;;;;;15.41;47.65;100175.00;4987172;28;1128;-54
2023/12/01 11:24:56;;;;;;;;;;;;;;;16.42;47.69;100176.59;4988578;28;1085;-54
2023/12/01 11:27:25;;;;;;;;;;;;;;;15.84;48.59;100175.34;4980801;28;1974;-58
2023/12/01 11:30:17;;;;;;;;;;;;;;;15.52;48.35;100176.59;5005905;28;1176;-58
2023/12/01 11:32:44;;;;;;;;;;;;;;;16.38;48.04;100187.34;4988760;28;1852;-53
2023/12/01 11:35:10;;;;;;;;;;;;;;;15.72;48.65;100177.59;4981030;28;1910;-58
2023/12/01 11:37:54;;;;;;;;;;;;;;;15.58;47.98;100180.13;4997858;28;1332;-59
2023/12/01 11:40:23;;;;;;;;;;;;;;;15.42;47.31;100181.28;4985595;28;1645;-56
2023/12/01 11:42:51;;;;;;;;;;;;;;;15.32;46.97;100173.91;4991749;28;1214;-57
2023/12/01 11:45:16;;;;;;;;;;;;;;;16.33;47.91;100181.88;4971386;28;1257;-56
2023/12/01 11:47:42;;;;;;;;;;;;;;;15.77;48.79;100194.00;4982214;28;1256;-57
2023/12/01 11:50:13;;;;;;;;;;;;;;;15.54;48.23;100190.84;4991483;28;1187;-56
2023/12/01 11:52:41;;;;;;;;;;;;;;;15.37;47.38;100180.19;4974193;28;1369;-56
2023/12/01 11:55:15;;;;;;;;;;;;;;;16.07;48.13;100182.09;4991485;28;2001;-53
2023/12/01 11:57:43;;;;;;;;;;;;;;;15.79;48.72;100178.13;4973583;28;2155;-56
2023/12/01 12:00:09;;;;;;;;;;;;;;;15.46;48.07;100176.88;4977816;28;1287;-56
2023/12/01 12:02:36;;;;;;;;;;;;;;;16.28;48.06;100176.44;4978779;28;1366;-58
2023/12/01 12:05:05;;;;;;;;;;;;;;;15.66;48.49;100175.97;4974369;28;1117;-51
2023/12/01 12:07:31;;;;;;;;;;;;;;;16.82;47.61;100173.78;4978960;28;1108;-56
2023/12/01 12:09:56;;;;;;;;;;;;;;;16.41;48.59;100163.97;4978219;28;1282;-55
2023/12/01 12:12:22;;;;;;;;;;;;;;;15.87;48.80;100165.75;4982216;28;1084;-55
2023/12/01 12:14:50;;;;;;;;;;;;;;;15.70;47.97;100166.91;4997398;28;1910;-57
2023/12/01 12:17:17;;;;;;;;;;;;;;;15.66;47.46;100174.06;4979870;28;887;-58
2023/12/01 12:19:43;;;;;;;;;;;;;;;15.56;46.95;100165.91;4996603;28;1311;-57
2023/12/01 12:22:08;;;;;;;;;;;;;;;15.50;46.65;100162.34;4979852;28;1357;-55
2023/12/01 12:24:34;;;;;;;;;;;;;;;15.31;46.57;100153.94;4994091;28;1152;-57
2023/12/01 12:27:00;;;;;;;;;;;;;;;15.26;46.20;100145.72;4977970;28;2239;-58
2023/12/01 12:29:25;;;;;;;;;;;;;;;15.72;47.41;100142.78;4977699;28;1258;-55
2023/12/01 12:31:51;;;;;;;;;;;;;;;15.80;48.57;100143.31;4971136;28;1184;-57
2023/12/01 12:34:17;;;;;;;;;;;;;;;15.49;47.96;100152.50;4979243;28;1982;-57
2023/12/01 12:36:43;;;;;;;;;;;;;;;15.32;47.51;100146.53;4978511;28;1295;-58
2023/12/01 12:39:13;;;;;;;;;;;;;;;15.86;48.28;100151.22;4998419;28;1286;-56
2023/12/01 12:41:40;;;;;;;;;;;;;;;15.51;48.15;100144.00;4982617;28;1217;-56
2023/12/01 12:44:08;;;;;;;;;;;;;;;15.37;47.41;100141.84;4985178;28;1129;-58
2023/12/01 12:46:33;;;;;;;;;;;;;;;15.82;47.85;100135.63;4992723;28;1044;-58